sensor_id;sensor_type;location;lat;lon;timestamp;pressure;altitude;pressure_sealevel;temperature;humidity
23164;BME280;31429;42.674;23.350;2023-02-14T00:00:00;96199.59;;;4.14;100.00
23164;BME280;31429;42.674;23.350;2023-02-14T00:01:06;96203.66;;;4.03;100.00
23164;BME280;31429;42.674;23.350;2023-02-14T00:02:07;96202.13;;;4.14;100.00
23164;BME280;31429;42.674;23.350;2023-02-14T00:03:07;96195.31;;;4.12;100.00
23164;BME280;31429;42.674;23.350;2023-02-14T00:04:08;96208.81;;;4.11;100.00
23164;BME280;31429;42.674;23.350;2023-02-14T00:05:10;96207.00;;;4.00;100.00
23164;BME280;31429;42.674;23.350;2023-02-14T00:06:12;96203.59;;;3.95;100.00
23164;BME280;31429;42.674;23.350;2023-02-14T00:07:13;96200.19;;;3.93;100.00
23164;BME280;31429;42.674;23.350;2023-02-14T00:08:14;96200.28;;;4.01;100.00
23164;BME280;31429;42.674;23.350;2023-02-14T00:09:16;96195.16;;;3.93;100.00
23164;BME280;31429;42.674;23.350;2023-02-14T00:10:17;96201.91;;;3.97;100.00
23164;BME280;31429;42.674;23.350;2023-02-14T00:11:19;96202.19;;;4.23;100.00
23164;BME280;31429;42.674;23.350;2023-02-14T00:12:19;96202.00;;;4.05;100.00
23164;BME280;31429;42.674;23.350;2023-02-14T00:13:20;96194.53;;;4.14;100.00
23164;BME280;31429;42.674;23.350;2023-02-14T00:14:21;96201.91;;;3.97;100.00
23164;BME280;31429;42.674;23.350;2023-02-14T00:15:40;96192.44;;;3.78;100.00
23164;BME280;31429;42.674;23.350;2023-02-14T00:16:41;96199.06;;;3.66;100.00
23164;BME280;31429;42.674;23.350;2023-02-14T00:17:42;96203.28;;;3.68;100.00
23164;BME280;31429;42.674;23.350;2023-02-14T00:18:43;96211.00;;;3.77;100.00
23164;BME280;31429;42.674;23.350;2023-02-14T00:20:02;96213.47;;;3.76;100.00
23164;BME280;31429;42.674;23.350;2023-02-14T00:21:04;96215.22;;;3.81;100.00
23164;BME280;31429;42.674;23.350;2023-02-14T00:22:05;96204.84;;;3.59;100.00
23164;BME280;31429;42.674;23.350;2023-02-14T00:23:06;96205.84;;;3.71;100.00
23164;BME280;31429;42.674;23.350;2023-02-14T00:24:08;96205.16;;;3.84;100.00
23164;BME280;31429;42.674;23.350;2023-02-14T00:25:09;96203.66;;;4.00;100.00
23164;BME280;31429;42.674;23.350;2023-02-14T00:26:12;96203.66;;;4.01;100.00
23164;BME280;31429;42.674;23.350;2023-02-14T00:27:13;96204.63;;;4.11;100.00
23164;BME280;31429;42.674;23.350;2023-02-14T00:28:14;96201.97;;;4.02;100.00
23164;BME280;31429;42.674;23.350;2023-02-14T00:29:16;96190.09;;;3.93;100.00
23164;BME280;31429;42.674;23.350;2023-02-14T00:30:17;96202.91;;;4.12;100.00
23164;BME280;31429;42.674;23.350;2023-02-14T00:31:18;96193.59;;;4.07;100.00
23164;BME280;31429;42.674;23.350;2023-02-14T00:32:18;96195.38;;;4.18;100.00
23164;BME280;31429;42.674;23.350;2023-02-14T00:33:19;96201.97;;;4.03;100.00
23164;BME280;31429;42.674;23.350;2023-02-14T00:34:20;96200.50;;;4.24;100.00
23164;BME280;31429;42.674;23.350;2023-02-14T00:35:21;96186.94;;;4.16;100.00
23164;BME280;31429;42.674;23.350;2023-02-14T00:36:23;96192.78;;;4.09;100.00
23164;BME280;31429;42.674;23.350;2023-02-14T00:37:24;96199.56;;;4.13;100.00
23164;BME280;31429;42.674;23.350;2023-02-14T00:38:24;96193.56;;;4.06;100.00
23164;BME280;31429;42.674;23.350;2023-02-14T00:39:25;96197.88;;;4.13;100.00
23164;BME280;31429;42.674;23.350;2023-02-14T00:40:25;96200.59;;;4.31;100.00
23164;BME280;31429;42.674;23.350;2023-02-14T00:41:28;96197.94;;;4.21;100.00
23164;BME280;31429;42.674;23.350;2023-02-14T00:42:29;96202.28;;;4.31;100.00
23164;BME280;31429;42.674;23.350;2023-02-14T00:43:29;96190.38;;;4.24;100.00
23164;BME280;31429;42.674;23.350;2023-02-14T00:44:30;96196.28;;;4.23;100.00
23164;BME280;31429;42.674;23.350;2023-02-14T00:45:31;96194.75;;;4.37;100.00
23164;BME280;31429;42.674;23.350;2023-02-14T00:46:34;96189.50;;;4.17;100.00
23164;BME280;31429;42.674;23.350;2023-02-14T00:47:35;96190.22;;;4.05;100.00
23164;BME280;31429;42.674;23.350;2023-02-14T00:48:36;96186.06;;;4.14;100.00
23164;BME280;31429;42.674;23.350;2023-02-14T00:49:36;96186.25;;;4.33;100.00
23164;BME280;31429;42.674;23.350;2023-02-14T00:50:37;96183.75;;;4.36;100.00
23164;BME280;31429;42.674;23.350;2023-02-14T00:51:39;96191.22;;;4.23;100.00
23164;BME280;31429;42.674;23.350;2023-02-14T00:52:40;96187.75;;;4.13;100.00
23164;BME280;31429;42.674;23.350;2023-02-14T00:53:41;96183.59;;;4.20;100.00
23164;BME280;31429;42.674;23.350;2023-02-14T00:54:41;96184.41;;;4.16;100.00
23164;BME280;31429;42.674;23.350;2023-02-14T00:55:43;96186.22;;;4.32;100.00
23164;BME280;31429;42.674;23.350;2023-02-14T00:56:44;96182.84;;;4.30;100.00
23164;BME280;31429;42.674;23.350;2023-02-14T00:57:44;96185.56;;;4.48;100.00
23164;BME280;31429;42.674;23.350;2023-02-14T00:58:45;96176.34;;;4.56;100.00
23164;BME280;31429;42.674;23.350;2023-02-14T00:59:46;96181.34;;;4.50;100.00
23164;BME280;31429;42.674;23.350;2023-02-14T01:00:46;96171.91;;;4.31;100.00
23164;BME280;31429;42.674;23.350;2023-02-14T01:01:47;96173.69;;;4.44;100.00
23164;BME280;31429;42.674;23.350;2023-02-14T01:02:48;96160.94;;;4.35;100.00
23164;BME280;31429;42.674;23.350;2023-02-14T01:03:48;96174.50;;;4.38;100.00
23164;BME280;31429;42.674;23.350;2023-02-14T01:04:49;96171.88;;;4.29;100.00
23164;BME280;31429;42.674;23.350;2023-02-14T01:05:50;96160.78;;;4.14;100.00
23164;BME280;31429;42.674;23.350;2023-02-14T01:06:52;96162.41;;;4.10;100.00
23164;BME280;31429;42.674;23.350;2023-02-14T01:07:52;96165.03;;;4.19;100.00
23164;BME280;31429;42.674;23.350;2023-02-14T01:08:53;96174.22;;;4.10;100.00
23164;BME280;31429;42.674;23.350;2023-02-14T01:09:54;96151.50;;;4.16;100.00
23164;BME280;31429;42.674;23.350;2023-02-14T01:10:54;96161.06;;;4.48;100.00
23164;BME280;31429;42.674;23.350;2023-02-14T01:11:55;96166.00;;;4.33;100.00
23164;BME280;31429;42.674;23.350;2023-02-14T01:12:56;96174.47;;;4.34;100.00
23164;BME280;31429;42.674;23.350;2023-02-14T01:13:57;96170.97;;;4.24;100.00
23164;BME280;31429;42.674;23.350;2023-02-14T01:14:57;96171.97;;;4.38;100.00
23164;BME280;31429;42.674;23.350;2023-02-14T01:16:04;96164.25;;;4.25;100.00
23164;BME280;31429;42.674;23.350;2023-02-14T01:17:05;96161.59;;;4.13;100.00
23164;BME280;31429;42.674;23.350;2023-02-14T01:18:06;96165.94;;;4.24;100.00
23164;BME280;31429;42.674;23.350;2023-02-14T01:19:07;96170.88;;;4.12;100.00
23164;BME280;31429;42.674;23.350;2023-02-14T01:20:09;96174.31;;;4.20;100.00
23164;BME280;31429;42.674;23.350;2023-02-14T01:21:11;96162.44;;;4.13;100.00
23164;BME280;31429;42.674;23.350;2023-02-14T01:22:13;96168.31;;;4.07;100.00
23164;BME280;31429;42.674;23.350;2023-02-14T01:23:14;96164.84;;;4.01;100.00
23164;BME280;31429;42.674;23.350;2023-02-14T01:24:15;96163.44;;;4.30;100.00
23164;BME280;31429;42.674;23.350;2023-02-14T01:25:16;96164.22;;;4.22;100.00
23164;BME280;31429;42.674;23.350;2023-02-14T01:26:17;96154.13;;;4.25;100.00
23164;BME280;31429;42.674;23.350;2023-02-14T01:27:18;96143.88;;;4.11;100.00
23164;BME280;31429;42.674;23.350;2023-02-14T01:28:19;96142.22;;;4.13;100.00
23164;BME280;31429;42.674;23.350;2023-02-14T01:29:19;96150.53;;;4.03;100.00
23164;BME280;31429;42.674;23.350;2023-02-14T01:30:20;96148.19;;;4.21;100.00
23164;BME280;31429;42.674;23.350;2023-02-14T01:31:22;96150.53;;;4.03;100.00
23164;BME280;31429;42.674;23.350;2023-02-14T01:32:23;96151.50;;;4.14;100.00
23164;BME280;31429;42.674;23.350;2023-02-14T01:33:24;96150.69;;;4.17;100.00
23164;BME280;31429;42.674;23.350;2023-02-14T01:34:25;96152.25;;;4.05;100.00
23164;BME280;31429;42.674;23.350;2023-02-14T01:35:25;96146.28;;;3.99;100.00
23164;BME280;31429;42.674;23.350;2023-02-14T01:36:28;96149.00;;;4.17;100.00
23164;BME280;31429;42.674;23.350;2023-02-14T01:37:31;96147.38;;;4.27;100.00
23164;BME280;31429;42.674;23.350;2023-02-14T01:38:32;96148.97;;;4.14;100.00
23164;BME280;31429;42.674;23.350;2023-02-14T01:39:32;96127.91;;;4.17;100.00
23164;BME280;31429;42.674;23.350;2023-02-14T01:40:33;96130.41;;;4.15;100.00
23164;BME280;31429;42.674;23.350;2023-02-14T01:41:35;96123.53;;;3.99;100.00
23164;BME280;31429;42.674;23.350;2023-02-14T01:42:36;96131.06;;;3.97;100.00
23164;BME280;31429;42.674;23.350;2023-02-14T01:43:52;96126.09;;;4.03;100.00
23164;BME280;31429;42.674;23.350;2023-02-14T01:44:56;96128.59;;;4.00;100.00
23164;BME280;31429;42.674;23.350;2023-02-14T01:45:57;96126.13;;;4.08;100.00
23164;BME280;31429;42.674;23.350;2023-02-14T01:46:59;96123.69;;;4.20;100.00
23164;BME280;31429;42.674;23.350;2023-02-14T01:48:02;96125.47;;;4.32;100.00
23164;BME280;31429;42.674;23.350;2023-02-14T01:49:06;96121.09;;;4.13;100.00
23164;BME280;31429;42.674;23.350;2023-02-14T01:50:11;96115.22;;;4.15;100.00
23164;BME280;31429;42.674;23.350;2023-02-14T01:51:15;96114.41;;;4.16;100.00
23164;BME280;31429;42.674;23.350;2023-02-14T01:52:20;96127.97;;;4.26;100.00
23164;BME280;31429;42.674;23.350;2023-02-14T01:53:26;96112.78;;;4.26;100.00
23164;BME280;31429;42.674;23.350;2023-02-14T01:54:28;96110.91;;;4.02;100.00
23164;BME280;31429;42.674;23.350;2023-02-14T01:55:33;96113.53;;;4.16;100.00
23164;BME280;31429;42.674;23.350;2023-02-14T01:56:37;96117.63;;;4.03;100.00
23164;BME280;31429;42.674;23.350;2023-02-14T01:57:43;96124.38;;;3.99;100.00
23164;BME280;31429;42.674;23.350;2023-02-14T01:58:45;96115.19;;;4.11;100.00
23164;BME280;31429;42.674;23.350;2023-02-14T01:59:57;96112.75;;;4.21;100.00
23164;BME280;31429;42.674;23.350;2023-02-14T02:01:19;96122.88;;;4.21;100.00
23164;BME280;31429;42.674;23.350;2023-02-14T02:02:20;96120.22;;;4.07;100.00
23164;BME280;31429;42.674;23.350;2023-02-14T02:03:25;96119.50;;;4.24;100.00
23164;BME280;31429;42.674;23.350;2023-02-14T02:04:31;96119.53;;;4.22;100.00
23164;BME280;31429;42.674;23.350;2023-02-14T02:05:36;96114.41;;;4.18;100.00
23164;BME280;31429;42.674;23.350;2023-02-14T02:06:42;96116.03;;;4.10;100.00
23164;BME280;31429;42.674;23.350;2023-02-14T02:07:44;96115.28;;;4.21;100.00
23164;BME280;31429;42.674;23.350;2023-02-14T02:08:52;96111.69;;;3.98;100.00
23164;BME280;31429;42.674;23.350;2023-02-14T02:09:57;96119.44;;;4.13;100.00
23164;BME280;31429;42.674;23.350;2023-02-14T02:10:59;96114.53;;;4.34;100.00
23164;BME280;31429;42.674;23.350;2023-02-14T02:12:00;96125.47;;;4.27;100.00
23164;BME280;31429;42.674;23.350;2023-02-14T02:13:04;96119.59;;;4.31;100.00
23164;BME280;31429;42.674;23.350;2023-02-14T02:14:05;96118.56;;;4.13;100.00
23164;BME280;31429;42.674;23.350;2023-02-14T02:15:09;96116.00;;;4.05;100.00
23164;BME280;31429;42.674;23.350;2023-02-14T02:16:23;96120.09;;;3.95;100.00
23164;BME280;31429;42.674;23.350;2023-02-14T02:17:36;96118.56;;;4.10;100.00
23164;BME280;31429;42.674;23.350;2023-02-14T02:18:51;96114.25;;;4.01;100.00
23164;BME280;31429;42.674;23.350;2023-02-14T02:20:23;96124.44;;;4.05;100.00
23164;BME280;31429;42.674;23.350;2023-02-14T02:21:57;96118.53;;;4.05;100.00
23164;BME280;31429;42.674;23.350;2023-02-14T02:23:25;96123.59;;;4.10;100.00
23164;BME280;31429;42.674;23.350;2023-02-14T02:24:42;96116.94;;;4.18;100.00
23164;BME280;31429;42.674;23.350;2023-02-14T02:26:08;96119.53;;;4.22;100.00
23164;BME280;31429;42.674;23.350;2023-02-14T02:27:23;96105.19;;;4.23;100.00
23164;BME280;31429;42.674;23.350;2023-02-14T02:28:43;96105.88;;;4.05;100.00
23164;BME280;31429;42.674;23.350;2023-02-14T02:30:22;96097.44;;;4.09;100.00
23164;BME280;31429;42.674;23.350;2023-02-14T02:31:41;;;;4.16;
23164;BME280;31429;42.674;23.350;2023-02-14T02:33:12;96090.72;;;4.10;100.00
23164;BME280;31429;42.674;23.350;2023-02-14T02:34:40;96092.47;;;4.18;100.00
23164;BME280;31429;42.674;23.350;2023-02-14T02:36:03;96093.16;;;4.00;100.00
23164;BME280;31429;42.674;23.350;2023-02-14T02:37:17;96086.44;;;4.01;100.00
23164;BME280;31429;42.674;23.350;2023-02-14T02:38:35;96088.19;;;4.10;100.00
23164;BME280;31429;42.674;23.350;2023-02-14T02:39:52;96078.19;;;4.26;100.00
23164;BME280;31429;42.674;23.350;2023-02-14T02:41:03;96079.97;;;4.38;100.00
23164;BME280;31429;42.674;23.350;2023-02-14T02:42:16;96078.13;;;4.20;100.00
23164;BME280;31429;42.674;23.350;2023-02-14T02:43:31;96083.31;;;4.31;100.00
23164;BME280;31429;42.674;23.350;2023-02-14T02:44:43;96067.13;;;4.15;100.00
23164;BME280;31429;42.674;23.350;2023-02-14T02:45:57;96081.34;;;3.96;100.00
23164;BME280;31429;42.674;23.350;2023-02-14T02:47:25;96077.94;;;3.97;100.00
23164;BME280;31429;42.674;23.350;2023-02-14T02:48:34;96057.72;;;3.97;100.00
23164;BME280;31429;42.674;23.350;2023-02-14T02:49:44;96081.41;;;4.07;100.00
23164;BME280;31429;42.674;23.350;2023-02-14T02:51:13;96076.50;;;4.22;100.00
23164;BME280;31429;42.674;23.350;2023-02-14T02:52:38;96079.78;;;4.15;100.00
23164;BME280;31429;42.674;23.350;2023-02-14T02:54:02;96073.03;;;4.11;100.00
23164;BME280;31429;42.674;23.350;2023-02-14T02:55:11;96064.44;;;3.92;100.00
23164;BME280;31429;42.674;23.350;2023-02-14T02:56:15;96077.13;;;3.98;100.00
23164;BME280;31429;42.674;23.350;2023-02-14T02:57:39;96080.69;;;4.22;100.00
23164;BME280;31429;42.674;23.350;2023-02-14T02:58:45;96081.50;;;4.16;100.00
23164;BME280;31429;42.674;23.350;2023-02-14T02:59:48;96083.94;;;4.05;100.00
23164;BME280;31429;42.674;23.350;2023-02-14T03:00:52;96077.97;;;3.99;100.00
23164;BME280;31429;42.674;23.350;2023-02-14T03:02:00;96083.78;;;3.86;100.00
23164;BME280;31429;42.674;23.350;2023-02-14T03:03:03;96094.13;;;4.13;100.00
23164;BME280;31429;42.674;23.350;2023-02-14T03:04:23;96089.03;;;4.12;100.00
23164;BME280;31429;42.674;23.350;2023-02-14T03:05:44;96090.69;;;4.05;100.00
23164;BME280;31429;42.674;23.350;2023-02-14T03:06:47;96083.78;;;3.86;100.00
23164;BME280;31429;42.674;23.350;2023-02-14T03:07:48;96085.63;;;4.05;100.00
23164;BME280;31429;42.674;23.350;2023-02-14T03:08:49;96085.63;;;4.05;100.00
23164;BME280;31429;42.674;23.350;2023-02-14T03:09:52;96086.31;;;3.87;100.00
23164;BME280;31429;42.674;23.350;2023-02-14T03:10:53;96079.63;;;3.95;100.00
23164;BME280;31429;42.674;23.350;2023-02-14T03:12:01;96086.50;;;4.10;100.00
23164;BME280;31429;42.674;23.350;2023-02-14T03:13:24;96082.25;;;4.06;100.00
23164;BME280;31429;42.674;23.350;2023-02-14T03:14:34;96085.59;;;4.03;100.00
23164;BME280;31429;42.674;23.350;2023-02-14T03:15:51;96079.69;;;4.01;100.00
23164;BME280;31429;42.674;23.350;2023-02-14T03:16:58;96083.19;;;4.20;100.00
23164;BME280;31429;42.674;23.350;2023-02-14T03:18:07;96086.69;;;4.31;100.00
23164;BME280;31429;42.674;23.350;2023-02-14T03:19:41;96086.59;;;4.21;100.00
23164;BME280;31429;42.674;23.350;2023-02-14T03:21:14;96082.94;;;3.85;100.00
23164;BME280;31429;42.674;23.350;2023-02-14T03:22:28;96069.50;;;3.95;100.00
23164;BME280;31429;42.674;23.350;2023-02-14T03:23:38;96071.31;;;4.07;100.00
23164;BME280;31429;42.674;23.350;2023-02-14T03:24:46;96064.47;;;3.97;100.00
23164;BME280;31429;42.674;23.350;2023-02-14T03:26:01;96065.16;;;3.79;100.00
23164;BME280;31429;42.674;23.350;2023-02-14T03:27:10;96075.28;;;3.81;100.00
23164;BME280;31429;42.674;23.350;2023-02-14T03:28:17;96069.66;;;4.11;100.00
23164;BME280;31429;42.674;23.350;2023-02-14T03:29:26;96059.53;;;4.11;100.00
23164;BME280;31429;42.674;23.350;2023-02-14T03:30:32;96055.94;;;3.83;100.00
23164;BME280;31429;42.674;23.350;2023-02-14T03:31:44;96054.28;;;3.88;100.00
23164;BME280;31429;42.674;23.350;2023-02-14T03:32:52;96048.47;;;4.01;100.00
23164;BME280;31429;42.674;23.350;2023-02-14T03:33:59;96059.41;;;3.98;100.00
23164;BME280;31429;42.674;23.350;2023-02-14T03:35:09;96059.41;;;3.94;100.00
23164;BME280;31429;42.674;23.350;2023-02-14T03:36:12;96057.63;;;3.85;100.00
23164;BME280;31429;42.674;23.350;2023-02-14T03:37:16;96055.13;;;3.90;100.00
23164;BME280;31429;42.674;23.350;2023-02-14T03:38:24;96056.84;;;3.91;100.00
23164;BME280;31429;42.674;23.350;2023-02-14T03:39:30;96057.63;;;3.87;100.00
23164;BME280;31429;42.674;23.350;2023-02-14T03:40:35;96050.94;;;3.90;100.00
23164;BME280;31429;42.674;23.350;2023-02-14T03:41:43;96059.44;;;4.01;100.00
23164;BME280;31429;42.674;23.350;2023-02-14T03:42:50;96062.97;;;4.17;100.00
23164;BME280;31429;42.674;23.350;2023-02-14T03:43:55;96060.31;;;4.02;100.00
23164;BME280;31429;42.674;23.350;2023-02-14T03:44:58;96057.03;;;4.15;100.00
23164;BME280;31429;42.674;23.350;2023-02-14T03:46:04;96055.97;;;3.86;100.00
23164;BME280;31429;42.674;23.350;2023-02-14T03:47:08;96062.56;;;3.75;100.00
23164;BME280;31429;42.674;23.350;2023-02-14T03:48:13;96064.91;;;3.54;100.00
23164;BME280;31429;42.674;23.350;2023-02-14T03:49:17;96055.88;;;3.77;100.00
23164;BME280;31429;42.674;23.350;2023-02-14T03:50:20;96051.75;;;3.88;100.00
23164;BME280;31429;42.674;23.350;2023-02-14T03:51:22;96055.16;;;3.93;100.00
23164;BME280;31429;42.674;23.350;2023-02-14T03:52:24;96050.06;;;3.88;100.00
23164;BME280;31429;42.674;23.350;2023-02-14T03:53:31;96040.59;;;3.69;100.00
23164;BME280;31429;42.674;23.350;2023-02-14T03:54:34;96042.47;;;3.85;100.00
23164;BME280;31429;42.674;23.350;2023-02-14T03:55:39;96043.09;;;3.66;100.00
23164;BME280;31429;42.674;23.350;2023-02-14T03:56:45;96042.47;;;3.87;100.00
23164;BME280;31429;42.674;23.350;2023-02-14T03:57:50;96038.28;;;3.92;100.00
23164;BME280;31429;42.674;23.350;2023-02-14T03:58:56;96034.88;;;3.85;100.00
23164;BME280;31429;42.674;23.350;2023-02-14T03:59:58;96031.41;;;3.76;100.00
23164;BME280;31429;42.674;23.350;2023-02-14T04:01:02;96036.38;;;3.67;100.00
23164;BME280;31429;42.674;23.350;2023-02-14T04:02:07;96036.50;;;3.82;100.00
23164;BME280;31429;42.674;23.350;2023-02-14T04:03:12;96030.56;;;3.75;100.00
23164;BME280;31429;42.674;23.350;2023-02-14T04:04:18;96030.50;;;3.69;100.00
23164;BME280;31429;42.674;23.350;2023-02-14T04:05:23;96027.25;;;3.84;100.00
23164;BME280;31429;42.674;23.350;2023-02-14T04:06:24;96031.72;;;4.14;100.00
23164;BME280;31429;42.674;23.350;2023-02-14T04:07:25;96021.72;;;4.35;100.00
23164;BME280;31429;42.674;23.350;2023-02-14T04:08:28;96019.13;;;4.24;100.00
23164;BME280;31429;42.674;23.350;2023-02-14T04:09:29;96019.03;;;4.11;100.00
23164;BME280;31429;42.674;23.350;2023-02-14T04:10:30;96028.34;;;4.15;100.00
23164;BME280;31429;42.674;23.350;2023-02-14T04:11:32;96026.47;;;3.91;100.00
23164;BME280;31429;42.674;23.350;2023-02-14T04:12:34;96028.00;;;3.71;100.00
23164;BME280;31429;42.674;23.350;2023-02-14T04:13:36;96016.31;;;3.85;100.00
23164;BME280;31429;42.674;23.350;2023-02-14T04:14:37;96022.38;;;4.06;100.00
23164;BME280;31429;42.674;23.350;2023-02-14T04:15:38;96025.56;;;3.80;100.00
23164;BME280;31429;42.674;23.350;2023-02-14T04:16:39;96026.41;;;3.83;100.00
23164;BME280;31429;42.674;23.350;2023-02-14T04:17:58;96030.69;;;3.90;100.00
23164;BME280;31429;42.674;23.350;2023-02-14T04:19:17;96030.03;;;4.14;100.00
23164;BME280;31429;42.674;23.350;2023-02-14T04:20:23;96028.25;;;4.04;100.00
23164;BME280;31429;42.674;23.350;2023-02-14T04:21:24;96027.13;;;3.66;100.00
23164;BME280;31429;42.674;23.350;2023-02-14T04:22:25;96039.03;;;3.79;100.00
23164;BME280;31429;42.674;23.350;2023-02-14T04:23:26;96034.00;;;3.86;100.00
23164;BME280;31429;42.674;23.350;2023-02-14T04:24:28;96032.53;;;4.08;100.00
23164;BME280;31429;42.674;23.350;2023-02-14T04:25:29;96029.09;;;4.01;100.00
23164;BME280;31429;42.674;23.350;2023-02-14T04:26:30;96041.69;;;3.94;100.00
23164;BME280;31429;42.674;23.350;2023-02-14T04:27:30;96034.97;;;3.99;100.00
23164;BME280;31429;42.674;23.350;2023-02-14T04:28:32;96035.72;;;3.86;100.00
23164;BME280;31429;42.674;23.350;2023-02-14T04:29:32;96036.66;;;3.98;100.00
23164;BME280;31429;42.674;23.350;2023-02-14T04:30:33;96028.13;;;3.87;100.00
23164;BME280;31429;42.674;23.350;2023-02-14T04:31:34;96035.56;;;3.72;100.00
23164;BME280;31429;42.674;23.350;2023-02-14T04:32:34;96019.75;;;3.93;100.00
23164;BME280;31429;42.674;23.350;2023-02-14T04:33:35;96022.31;;;3.99;100.00
23164;BME280;31429;42.674;23.350;2023-02-14T04:34:36;96024.81;;;3.91;100.00
23164;BME280;31429;42.674;23.350;2023-02-14T04:35:37;96018.91;;;3.91;100.00
23164;BME280;31429;42.674;23.350;2023-02-14T04:36:38;96029.00;;;3.88;100.00
23164;BME280;31429;42.674;23.350;2023-02-14T04:37:38;96024.72;;;3.84;100.00
23164;BME280;31429;42.674;23.350;2023-02-14T04:38:39;96026.28;;;3.70;100.00
23164;BME280;31429;42.674;23.350;2023-02-14T04:39:41;96028.16;;;3.92;100.00
23164;BME280;31429;42.674;23.350;2023-02-14T04:40:42;96022.28;;;3.93;100.00
23164;BME280;31429;42.674;23.350;2023-02-14T04:41:42;96024.81;;;3.93;100.00
23164;BME280;31429;42.674;23.350;2023-02-14T04:42:43;96017.75;;;3.59;100.00
23164;BME280;31429;42.674;23.350;2023-02-14T04:43:43;96019.34;;;3.46;100.00
23164;BME280;31429;42.674;23.350;2023-02-14T04:44:44;96004.09;;;3.38;100.00
23164;BME280;31429;42.674;23.350;2023-02-14T04:45:46;96004.81;;;3.25;100.00
23164;BME280;31429;42.674;23.350;2023-02-14T04:46:47;96002.44;;;3.40;100.00
23164;BME280;31429;42.674;23.350;2023-02-14T04:47:47;95999.00;;;3.35;100.00
23164;BME280;31429;42.674;23.350;2023-02-14T04:48:48;96008.50;;;3.61;100.00
23164;BME280;31429;42.674;23.350;2023-02-14T04:49:48;96007.63;;;3.56;100.00
23164;BME280;31429;42.674;23.350;2023-02-14T04:50:52;96008.34;;;3.42;100.00
23164;BME280;31429;42.674;23.350;2023-02-14T04:51:53;96007.69;;;3.60;100.00
23164;BME280;31429;42.674;23.350;2023-02-14T04:52:54;96007.72;;;3.63;100.00
23164;BME280;31429;42.674;23.350;2023-02-14T04:53:55;96007.72;;;3.65;100.00
23164;BME280;31429;42.674;23.350;2023-02-14T04:54:57;96005.25;;;3.74;100.00
23164;BME280;31429;42.674;23.350;2023-02-14T04:55:57;96005.13;;;3.59;100.00
23164;BME280;31429;42.674;23.350;2023-02-14T04:56:58;96002.63;;;3.62;100.00
23164;BME280;31429;42.674;23.350;2023-02-14T04:57:59;96001.84;;;3.70;100.00
23164;BME280;31429;42.674;23.350;2023-02-14T04:58:59;96004.47;;;3.81;100.00
23164;BME280;31429;42.674;23.350;2023-02-14T05:00:00;96002.56;;;3.56;100.00
23164;BME280;31429;42.674;23.350;2023-02-14T05:01:01;96005.53;;;3.15;100.00
23164;BME280;31429;42.674;23.350;2023-02-14T05:02:02;96007.50;;;3.40;100.00
23164;BME280;31429;42.674;23.350;2023-02-14T05:03:02;96011.56;;;3.29;100.00
23164;BME280;31429;42.674;23.350;2023-02-14T05:04:03;96015.91;;;3.41;100.00
23164;BME280;31429;42.674;23.350;2023-02-14T05:05:04;96017.88;;;3.71;100.00
23164;BME280;31429;42.674;23.350;2023-02-14T05:06:05;96015.28;;;3.66;100.00
23164;BME280;31429;42.674;23.350;2023-02-14T05:07:06;96007.00;;;3.79;100.00
23164;BME280;31429;42.674;23.350;2023-02-14T05:08:07;96017.94;;;3.77;100.00
23164;BME280;31429;42.674;23.350;2023-02-14T05:09:07;96014.44;;;3.64;100.00
23164;BME280;31429;42.674;23.350;2023-02-14T05:10:10;96008.63;;;3.71;100.00
23164;BME280;31429;42.674;23.350;2023-02-14T05:11:10;96002.72;;;3.71;100.00
23164;BME280;31429;42.674;23.350;2023-02-14T05:12:11;96010.47;;;3.95;100.00
23164;BME280;31429;42.674;23.350;2023-02-14T05:13:12;96001.25;;;4.00;100.00
23164;BME280;31429;42.674;23.350;2023-02-14T05:14:13;96003.63;;;3.82;100.00
23164;BME280;31429;42.674;23.350;2023-02-14T05:15:14;96010.28;;;3.71;100.00
23164;BME280;31429;42.674;23.350;2023-02-14T05:16:15;96005.31;;;3.81;100.00
23164;BME280;31429;42.674;23.350;2023-02-14T05:17:15;96012.75;;;3.66;100.00
23164;BME280;31429;42.674;23.350;2023-02-14T05:18:16;96012.81;;;3.72;100.00
23164;BME280;31429;42.674;23.350;2023-02-14T05:19:16;96008.63;;;3.73;100.00
23164;BME280;31429;42.674;23.350;2023-02-14T05:20:17;96005.31;;;3.80;100.00
23164;BME280;31429;42.674;23.350;2023-02-14T05:21:18;96005.22;;;3.69;100.00
23164;BME280;31429;42.674;23.350;2023-02-14T05:22:19;96004.47;;;3.81;100.00
23164;BME280;31429;42.674;23.350;2023-02-14T05:23:20;96013.75;;;3.83;100.00
23164;BME280;31429;42.674;23.350;2023-02-14T05:24:20;96007.72;;;3.68;100.00
23164;BME280;31429;42.674;23.350;2023-02-14T05:25:23;96005.22;;;3.71;100.00
23164;BME280;31429;42.674;23.350;2023-02-14T05:26:23;96006.16;;;3.82;100.00
23164;BME280;31429;42.674;23.350;2023-02-14T05:27:24;96004.47;;;3.81;100.00
23164;BME280;31429;42.674;23.350;2023-02-14T05:28:24;96007.91;;;3.87;100.00
23164;BME280;31429;42.674;23.350;2023-02-14T05:29:25;96003.75;;;3.94;100.00
23164;BME280;31429;42.674;23.350;2023-02-14T05:30:26;95998.66;;;3.91;100.00
23164;BME280;31429;42.674;23.350;2023-02-14T05:31:28;96005.41;;;3.95;100.00
23164;BME280;31429;42.674;23.350;2023-02-14T05:32:28;96003.88;;;4.15;100.00
23164;BME280;31429;42.674;23.350;2023-02-14T05:33:29;96001.88;;;3.72;100.00
23164;BME280;31429;42.674;23.350;2023-02-14T05:34:30;96008.69;;;3.83;100.00
23164;BME280;31429;42.674;23.350;2023-02-14T05:35:30;96006.91;;;3.69;100.00
23164;BME280;31429;42.674;23.350;2023-02-14T05:36:31;96007.81;;;3.77;100.00
23164;BME280;31429;42.674;23.350;2023-02-14T05:37:32;96007.00;;;3.79;100.00
23164;BME280;31429;42.674;23.350;2023-02-14T05:38:32;96003.63;;;3.77;100.00